Time;durP1;ratioP1;P1;durP2;ratioP2;P2;SDS_P1;SDS_P2;PMS_P1;PMS_P2;Temp;Humidity;BMP_temperature;BMP_pressure;BME280_temperature;BME280_humidity;BME280_pressure;Samples;Min_cycle;Max_cycle;Signal;HPM_P1;HPM_P2
2021/12/06 00:01:52;;;;;;;25.02;8.90;;;2.60;99.90;;;;;;5087036;28;20046;-75
2021/12/06 00:04:25;;;;;;;18.15;7.85;;;2.60;99.90;;;;;;5086926;28;20032;-77
2021/12/06 00:06:54;;;;;;;18.30;8.20;;;2.60;99.90;;;;;;5087280;28;20032;-75
2021/12/06 00:09:24;;;;;;;24.45;9.73;;;2.60;99.90;;;;;;5105255;28;20058;-75
2021/12/06 00:11:56;;;;;;;19.40;7.35;;;2.50;99.90;;;;;;5087032;28;20542;-75
2021/12/06 00:14:28;;;;;;;27.00;9.13;;;2.60;99.90;;;;;;5105072;28;20026;-76
2021/12/06 00:16:56;;;;;;;23.58;8.50;;;2.60;99.90;;;;;;5086880;28;20093;-76
2021/12/06 00:19:22;;;;;;;23.65;9.15;;;2.60;99.90;;;;;;5105004;28;20072;-77
2021/12/06 00:21:49;;;;;;;23.25;8.52;;;2.50;99.90;;;;;;5105023;28;20035;-78
2021/12/06 00:24:14;;;;;;;29.60;9.35;;;2.50;99.90;;;;;;5104875;28;20032;-78
2021/12/06 00:26:41;;;;;;;19.58;8.02;;;2.50;99.90;;;;;;5105111;28;20040;-78
2021/12/06 00:29:09;;;;;;;22.85;7.95;;;2.50;99.90;;;;;;5105372;28;20043;-78
2021/12/06 00:31:36;;;;;;;20.83;8.60;;;2.50;99.90;;;;;;5086792;28;20024;-77
2021/12/06 00:34:06;;;;;;;22.77;8.45;;;2.50;99.90;;;;;;5104893;28;20117;-76
2021/12/06 00:36:37;;;;;;;23.77;8.75;;;2.50;99.90;;;;;;5104784;28;20036;-77
2021/12/06 00:39:06;;;;;;;17.05;8.25;;;2.50;99.90;;;;;;5086502;28;20036;-76
2021/12/06 00:41:32;;;;;;;21.55;8.55;;;2.60;99.90;;;;;;5105019;28;20063;-76
2021/12/06 00:43:59;;;;;;;20.42;7.82;;;2.50;99.90;;;;;;5086785;28;20043;-76
2021/12/06 00:46:25;;;;;;;27.13;9.65;;;2.50;99.90;;;;;;5086255;28;20044;-76
2021/12/06 00:48:51;;;;;;;24.65;8.75;;;2.50;99.90;;;;;;5086515;28;20091;-78
2021/12/06 00:51:18;;;;;;;24.30;8.80;;;2.50;99.90;;;;;;5086119;28;20027;-78
2021/12/06 00:53:44;;;;;;;28.52;8.93;;;2.50;99.90;;;;;;5086636;28;20020;-79
2021/12/06 00:56:12;;;;;;;20.35;7.32;;;2.60;99.90;;;;;;5104854;28;20035;-77
2021/12/06 00:58:39;;;;;;;26.25;9.98;;;2.60;99.90;;;;;;5086605;28;20028;-79
2021/12/06 01:01:08;;;;;;;27.77;8.50;;;2.70;99.90;;;;;;5104625;28;20084;-77
2021/12/06 01:03:37;;;;;;;26.10;7.80;;;2.60;99.90;;;;;;5086399;28;20127;-77
2021/12/06 01:06:04;;;;;;;32.28;9.20;;;2.60;99.90;;;;;;5086458;28;20046;-76
2021/12/06 01:08:30;;;;;;;20.85;7.47;;;2.60;99.90;;;;;;5086505;28;20512;-75
2021/12/06 01:10:56;;;;;;;23.92;8.45;;;2.60;99.90;;;;;;5086260;28;20035;-77
2021/12/06 01:13:23;;;;;;;23.35;8.73;;;2.60;99.90;;;;;;5104487;28;20024;-76
2021/12/06 01:15:49;;;;;;;25.98;9.25;;;2.60;99.90;;;;;;5104589;28;20032;-76
2021/12/06 01:18:17;;;;;;;19.42;7.43;;;2.60;99.90;;;;;;5086221;28;20059;-77
2021/12/06 01:20:58;;;;;;;30.88;9.68;;;2.60;99.90;;;;;;5104452;28;20054;-78
2021/12/06 01:23:28;;;;;;;23.50;8.43;;;2.50;99.90;;;;;;5086273;28;20032;-77
2021/12/06 01:26:25;;;;;;;16.75;8.05;;;2.60;99.90;;;;;;5104116;28;20032;-78
2021/12/06 01:31:40;;;;;;;17.95;7.30;;;2.50;99.90;;;;;;5104325;28;20031;-77
2021/12/06 01:39:50;;;;;;;19.75;7.97;;;2.50;99.90;;;;;;5084317;28;20028;-78
2021/12/06 01:42:16;;;;;;;22.75;8.10;;;2.50;99.90;;;;;;5072312;28;20029;-78
2021/12/06 01:44:46;;;;;;;22.85;7.63;;;2.50;99.90;;;;;;5062935;28;20466;-75
2021/12/06 01:47:22;;;;;;;21.70;8.25;;;2.50;99.90;;;;;;5082757;28;20510;-77
2021/12/06 01:49:55;;;;;;;19.20;7.53;;;2.50;99.90;;;;;;5082609;28;20039;-79
2021/12/06 01:52:28;;;;;;;19.30;6.88;;;2.50;99.90;;;;;;5083842;28;20036;-77
2021/12/06 01:54:55;;;;;;;25.02;7.78;;;2.50;99.90;;;;;;5070953;28;20025;-78
2021/12/06 01:57:22;;;;;;;25.08;9.15;;;2.50;99.90;;;;;;5062467;28;20115;-77
2021/12/06 01:59:53;;;;;;;21.25;8.57;;;2.50;99.90;;;;;;5062554;28;20029;-77
2021/12/06 02:02:20;;;;;;;22.08;7.85;;;2.50;99.90;;;;;;5064042;28;20028;-77
2021/12/06 02:04:46;;;;;;;20.40;7.63;;;2.50;99.90;;;;;;5066042;28;20029;-78
2021/12/06 02:07:16;;;;;;;23.23;8.25;;;2.50;99.90;;;;;;5067392;28;20033;-77
2021/12/06 02:09:44;;;;;;;17.50;7.32;;;2.50;99.90;;;;;;5066248;28;20120;-78
2021/12/06 02:12:12;;;;;;;17.90;7.53;;;2.50;99.90;;;;;;5067631;28;20025;-76
2021/12/06 02:14:54;;;;;;;21.38;7.65;;;2.50;99.90;;;;;;5065918;28;20048;-79
2021/12/06 02:17:28;;;;;;;20.13;8.30;;;2.50;99.90;;;;;;5065922;28;20088;-77
2021/12/06 02:20:04;;;;;;;21.55;7.82;;;2.40;99.90;;;;;;5065943;28;20485;-77
2021/12/06 02:22:32;;;;;;;22.05;9.00;;;2.40;99.90;;;;;;5065229;28;20049;-75
2021/12/06 02:25:00;;;;;;;19.10;8.55;;;2.40;99.90;;;;;;5065063;28;20033;-76
2021/12/06 02:27:27;;;;;;;21.40;7.85;;;2.40;99.90;;;;;;5065557;28;20456;-76
2021/12/06 02:29:56;;;;;;;20.48;7.30;;;2.40;99.90;;;;;;5065454;28;20035;-74
2021/12/06 02:32:22;;;;;;;16.83;7.47;;;2.40;99.90;;;;;;5066866;28;20035;-75
2021/12/06 02:34:52;;;;;;;22.27;7.57;;;2.40;99.90;;;;;;5056062;28;20136;-76
2021/12/06 02:37:21;;;;;;;24.05;7.78;;;2.40;99.90;;;;;;5045482;28;20036;-76
2021/12/06 02:39:47;;;;;;;19.45;7.70;;;2.40;99.90;;;;;;5046656;28;20017;-77
2021/12/06 02:42:16;;;;;;;17.27;7.80;;;2.30;99.90;;;;;;5045580;28;20029;-76
2021/12/06 02:44:44;;;;;;;27.95;8.35;;;2.30;99.90;;;;;;5045283;28;20043;-75
2021/12/06 02:47:11;;;;;;;24.77;8.68;;;2.30;99.90;;;;;;5045421;28;20041;-77
2021/12/06 02:49:40;;;;;;;24.40;9.85;;;2.30;99.90;;;;;;5046790;28;20037;-79
2021/12/06 02:52:06;;;;;;;21.70;8.27;;;2.30;99.90;;;;;;5046897;28;20061;-77
2021/12/06 02:54:33;;;;;;;21.90;8.15;;;2.30;99.90;;;;;;5045267;28;20332;-78
2021/12/06 02:59:39;;;;;;;18.30;8.15;;;2.30;99.90;;;;;;5046780;28;20070;-76
2021/12/06 03:02:14;;;;;;;23.13;9.32;;;2.30;99.90;;;;;;5046217;28;20075;-77
2021/12/06 03:04:41;;;;;;;24.35;8.98;;;2.30;99.90;;;;;;5046515;28;20029;-74
2021/12/06 03:07:09;;;;;;;33.00;10.13;;;2.30;99.90;;;;;;5046377;28;20474;-75
2021/12/06 03:09:37;;;;;;;29.23;10.07;;;2.20;99.90;;;;;;5046305;28;20485;-75
2021/12/06 03:12:13;;;;;;;23.25;9.05;;;2.30;99.90;;;;;;5058589;28;20100;-77
2021/12/06 03:14:47;;;;;;;27.60;9.75;;;2.30;99.90;;;;;;5066058;28;20025;-75
2021/12/06 03:17:15;;;;;;;29.58;10.13;;;2.30;99.90;;;;;;5066099;28;20049;-76
2021/12/06 03:19:42;;;;;;;19.20;9.10;;;2.30;99.90;;;;;;5064761;28;20040;-77
2021/12/06 03:22:15;;;;;;;27.95;9.07;;;2.30;99.90;;;;;;5064967;28;20029;-76
2021/12/06 03:24:42;;;;;;;25.27;8.13;;;2.20;99.90;;;;;;5065876;28;20039;-77
2021/12/06 03:27:13;;;;;;;25.83;8.93;;;2.30;99.90;;;;;;5064685;28;20051;-76
2021/12/06 03:29:43;;;;;;;31.40;9.95;;;2.20;99.90;;;;;;5064644;28;20384;-77
2021/12/06 03:32:10;;;;;;;31.58;9.63;;;2.30;99.90;;;;;;5066148;28;20036;-77
2021/12/06 03:34:37;;;;;;;25.05;9.75;;;2.30;99.90;;;;;;5072240;28;20060;-75
2021/12/06 03:37:06;;;;;;;24.90;9.25;;;2.30;99.90;;;;;;5085630;28;20081;-76
2021/12/06 03:39:35;;;;;;;24.80;8.90;;;2.30;99.90;;;;;;5085725;28;20481;-77
2021/12/06 03:42:04;;;;;;;23.25;8.93;;;2.30;99.90;;;;;;5084287;28;20028;-76
2021/12/06 03:44:30;;;;;;;26.60;9.63;;;2.30;99.90;;;;;;5083984;28;20104;-77
2021/12/06 03:47:23;;;;;;;32.47;11.20;;;2.30;99.90;;;;;;5083867;28;20087;-76
2021/12/06 03:49:50;;;;;;;25.15;9.20;;;2.30;99.90;;;;;;5079986;28;20100;-76
2021/12/06 03:52:16;;;;;;;34.45;10.07;;;2.30;99.90;;;;;;5085444;28;20029;-76
2021/12/06 03:54:43;;;;;;;28.27;10.52;;;2.30;99.90;;;;;;5085347;28;20024;-75
2021/12/06 03:57:12;;;;;;;28.02;9.52;;;2.30;99.90;;;;;;5084338;28;20477;-78
2021/12/06 03:59:41;;;;;;;25.13;8.27;;;2.40;99.90;;;;;;5085578;28;20052;-78
2021/12/06 04:02:08;;;;;;;34.35;11.57;;;2.30;99.90;;;;;;5085411;28;20097;-76
2021/12/06 04:04:34;;;;;;;26.92;10.85;;;2.30;99.90;;;;;;5084013;28;20495;-76
2021/12/06 04:06:59;;;;;;;29.73;10.63;;;2.30;99.90;;;;;;5083724;28;20520;-77
2021/12/06 04:09:26;;;;;;;34.47;10.43;;;2.40;99.90;;;;;;5083495;28;20092;-77
2021/12/06 04:11:52;;;;;;;25.77;8.75;;;2.40;99.90;;;;;;5083628;28;20128;-77
2021/12/06 04:14:22;;;;;;;26.08;11.00;;;2.40;99.90;;;;;;5083694;28;20056;-76
2021/12/06 04:16:48;;;;;;;31.92;9.50;;;2.40;99.90;;;;;;5084879;28;20052;-76
2021/12/06 04:19:16;;;;;;;30.73;11.30;;;2.40;99.90;;;;;;5085034;28;20024;-77
2021/12/06 04:21:46;;;;;;;37.22;11.40;;;2.40;99.90;;;;;;5083670;28;20054;-77
2021/12/06 04:24:15;;;;;;;32.20;10.10;;;2.40;99.90;;;;;;5085106;28;20042;-79
2021/12/06 04:26:41;;;;;;;33.97;12.13;;;2.40;99.90;;;;;;5084481;28;20032;-76
2021/12/06 04:29:08;;;;;;;27.67;9.63;;;2.40;99.90;;;;;;5083855;28;20032;-77
2021/12/06 04:31:39;;;;;;;30.70;10.77;;;2.30;99.90;;;;;;5085011;28;20055;-78
2021/12/06 04:34:07;;;;;;;26.40;10.68;;;2.30;99.90;;;;;;5083420;28;20055;-76
2021/12/06 04:36:32;;;;;;;31.95;11.85;;;2.30;99.90;;;;;;5083277;28;20017;-77
2021/12/06 04:38:58;;;;;;;29.25;9.23;;;2.30;99.90;;;;;;5083553;28;20031;-78
2021/12/06 04:41:24;;;;;;;32.15;10.80;;;2.30;99.90;;;;;;5083071;28;20021;-77
2021/12/06 04:43:50;;;;;;;30.55;9.82;;;2.20;99.90;;;;;;5083468;28;20032;-76
2021/12/06 04:46:16;;;;;;;31.52;12.60;;;2.30;99.90;;;;;;5084469;28;20044;-78
2021/12/06 04:48:42;;;;;;;30.42;11.48;;;2.30;99.90;;;;;;5083390;28;20029;-78
2021/12/06 04:51:09;;;;;;;40.47;12.70;;;2.30;99.90;;;;;;5084976;28;20025;-77
2021/12/06 04:53:37;;;;;;;34.17;10.90;;;2.30;99.90;;;;;;5084169;28;20088;-76
2021/12/06 04:56:16;;;;;;;36.85;10.35;;;2.30;99.90;;;;;;5083232;28;20098;-76
2021/12/06 04:58:57;;;;;;;28.52;11.30;;;2.30;99.90;;;;;;5083488;28;20033;-76
2021/12/06 05:01:28;;;;;;;32.88;12.45;;;2.30;99.90;;;;;;5083267;28;20111;-77
2021/12/06 05:03:55;;;;;;;30.67;9.93;;;2.40;99.90;;;;;;5083412;28;20029;-77
2021/12/06 05:06:27;;;;;;;32.05;12.30;;;2.30;99.90;;;;;;5082871;28;20037;-77
2021/12/06 05:08:56;;;;;;;31.83;10.20;;;2.30;99.90;;;;;;5084366;28;20031;-78
2021/12/06 05:11:25;;;;;;;31.45;9.65;;;2.30;99.90;;;;;;5083053;28;20021;-76
2021/12/06 05:13:52;;;;;;;28.25;10.63;;;2.30;99.90;;;;;;5083155;28;20024;-76
2021/12/06 05:16:18;;;;;;;32.75;9.98;;;2.30;99.90;;;;;;5084318;28;20489;-77
2021/12/06 05:18:45;;;;;;;23.75;9.80;;;2.30;99.90;;;;;;5084526;28;20025;-78
2021/12/06 05:21:11;;;;;;;25.08;10.07;;;2.30;99.90;;;;;;5084542;28;20039;-77
2021/12/06 05:23:40;;;;;;;29.85;10.98;;;2.30;99.90;;;;;;5083065;28;20028;-75
2021/12/06 05:26:06;;;;;;;32.78;12.02;;;2.30;99.90;;;;;;5083159;28;20041;-77
2021/12/06 05:28:39;;;;;;;33.90;11.88;;;2.30;99.90;;;;;;5082841;28;20055;-76
2021/12/06 05:31:13;;;;;;;27.75;11.13;;;2.30;99.90;;;;;;5084492;28;20163;-75
2021/12/06 05:33:44;;;;;;;36.78;12.77;;;2.30;99.90;;;;;;5084456;28;20021;-75
2021/12/06 05:36:10;;;;;;;31.63;10.93;;;2.30;99.90;;;;;;5082914;28;20045;-76
2021/12/06 05:38:36;;;;;;;36.70;12.30;;;2.20;99.90;;;;;;5086632;28;20024;-75
2021/12/06 05:41:03;;;;;;;32.88;12.60;;;2.30;99.90;;;;;;5081853;28;20063;-75
2021/12/06 05:43:29;;;;;;;33.78;10.98;;;2.30;99.90;;;;;;5067890;28;20032;-76
2021/12/06 05:45:56;;;;;;;35.50;12.50;;;2.30;99.90;;;;;;5085859;28;20029;-75
2021/12/06 05:48:21;;;;;;;30.98;11.00;;;2.30;99.90;;;;;;5087605;28;20063;-74
2021/12/06 05:50:48;;;;;;;27.02;10.82;;;2.30;99.90;;;;;;5086292;28;20028;-77
2021/12/06 05:53:16;;;;;;;31.98;12.23;;;2.30;99.90;;;;;;5087548;28;20028;-78
2021/12/06 05:55:44;;;;;;;23.17;9.38;;;2.30;99.90;;;;;;5076785;28;20037;-75
2021/12/06 05:58:17;;;;;;;34.28;12.63;;;2.30;99.90;;;;;;5066619;28;20028;-76
2021/12/06 06:00:45;;;;;;;34.35;11.45;;;2.30;99.90;;;;;;5086440;28;20040;-75
2021/12/06 06:03:12;;;;;;;39.85;13.07;;;2.30;99.90;;;;;;5087641;28;20024;-78
2021/12/06 06:05:42;;;;;;;34.53;11.95;;;2.30;99.90;;;;;;5086237;28;20032;-77
2021/12/06 06:08:09;;;;;;;34.38;11.65;;;2.20;99.90;;;;;;5087798;28;20170;-76
2021/12/06 06:10:36;;;;;;;31.10;11.60;;;2.30;99.90;;;;;;5085949;28;20031;-77
2021/12/06 06:13:03;;;;;;;28.05;11.57;;;2.30;99.90;;;;;;5085785;28;20468;-74
2021/12/06 06:15:30;;;;;;;31.10;10.85;;;2.30;99.90;;;;;;5087097;28;20456;-74
2021/12/06 06:17:57;;;;;;;28.17;12.85;;;2.30;99.90;;;;;;5085711;28;20103;-74
2021/12/06 06:20:29;;;;;;;35.05;12.35;;;2.30;99.90;;;;;;5087104;28;20040;-77
2021/12/06 06:22:54;;;;;;;29.08;12.52;;;2.30;99.90;;;;;;5087268;28;20043;-75
2021/12/06 06:25:20;;;;;;;34.70;11.73;;;2.30;99.90;;;;;;5086969;28;20036;-75
2021/12/06 06:27:46;;;;;;;42.20;12.38;;;2.30;99.90;;;;;;5086542;28;20040;-75
2021/12/06 06:30:15;;;;;;;35.20;11.68;;;2.30;99.90;;;;;;5085645;28;20032;-76
2021/12/06 06:32:43;;;;;;;36.38;11.95;;;2.30;99.90;;;;;;5086617;28;20047;-76
2021/12/06 06:35:10;;;;;;;31.35;11.40;;;2.30;99.90;;;;;;5098492;28;20063;-76
2021/12/06 06:37:37;;;;;;;31.10;11.30;;;2.30;99.90;;;;;;5106486;28;20333;-75
2021/12/06 06:40:03;;;;;;;23.52;9.60;;;2.30;99.90;;;;;;5074417;28;20484;-76
2021/12/06 06:42:29;;;;;;;31.40;11.15;;;2.30;99.90;;;;;;5088569;28;20024;-77
2021/12/06 06:44:55;;;;;;;36.33;11.52;;;2.30;99.90;;;;;;5071519;28;20024;-77
2021/12/06 06:47:24;;;;;;;32.20;11.82;;;2.30;99.90;;;;;;5093839;28;20043;-77
2021/12/06 06:49:50;;;;;;;34.05;12.70;;;2.30;99.90;;;;;;5079215;28;20027;-77
2021/12/06 06:52:17;;;;;;;37.58;12.75;;;2.30;99.90;;;;;;5085417;28;20032;-77
2021/12/06 06:54:45;;;;;;;35.95;11.55;;;2.20;99.90;;;;;;5086433;28;20040;-78
2021/12/06 06:57:18;;;;;;;34.60;11.35;;;2.20;99.90;;;;;;5072512;28;20035;-77
2021/12/06 06:59:46;;;;;;;29.98;11.90;;;2.20;99.90;;;;;;5086399;28;20028;-77
2021/12/06 07:02:12;;;;;;;40.83;12.93;;;2.20;99.90;;;;;;5085968;28;20028;-77
2021/12/06 07:04:44;;;;;;;38.47;12.35;;;2.10;99.90;;;;;;5086176;28;20142;-76
2021/12/06 07:07:11;;;;;;;38.83;12.75;;;2.10;99.90;;;;;;5070312;28;20051;-78
2021/12/06 07:09:37;;;;;;;38.90;10.75;;;2.10;99.90;;;;;;5098572;28;20032;-75
2021/12/06 07:12:05;;;;;;;36.15;12.00;;;2.00;99.90;;;;;;5085692;28;20059;-76
2021/12/06 07:14:31;;;;;;;34.28;11.82;;;2.00;99.90;;;;;;5077674;28;20036;-77
2021/12/06 07:16:57;;;;;;;34.80;11.50;;;1.90;99.90;;;;;;5086127;28;20031;-76
2021/12/06 07:19:22;;;;;;;29.42;10.13;;;1.90;99.90;;;;;;5076847;28;20028;-76
2021/12/06 07:21:48;;;;;;;37.85;12.02;;;1.90;99.90;;;;;;5073473;28;20039;-75
2021/12/06 07:24:15;;;;;;;26.30;11.10;;;1.90;99.90;;;;;;5085385;28;20028;-77
2021/12/06 07:26:41;;;;;;;30.65;11.15;;;1.80;99.90;;;;;;5067436;28;20109;-77
2021/12/06 07:29:07;;;;;;;25.52;11.20;;;1.80;99.90;;;;;;5085541;28;20035;-75
2021/12/06 07:31:33;;;;;;;37.67;12.90;;;1.80;99.90;;;;;;5069809;28;20032;-76
2021/12/06 07:33:58;;;;;;;31.42;10.75;;;1.80;99.90;;;;;;5090680;28;20035;-75
2021/12/06 07:36:28;;;;;;;36.10;11.85;;;1.70;99.90;;;;;;5088964;28;20025;-77
2021/12/06 07:38:54;;;;;;;32.00;11.40;;;1.70;99.90;;;;;;5066896;28;20036;-74
2021/12/06 07:41:28;;;;;;;30.65;11.52;;;1.70;99.90;;;;;;5081146;28;20106;-76
2021/12/06 07:43:56;;;;;;;26.70;8.93;;;1.70;99.90;;;;;;5105228;28;20048;-79
2021/12/06 07:46:22;;;;;;;30.45;11.88;;;1.70;99.90;;;;;;5086952;28;20047;-76
2021/12/06 07:48:52;;;;;;;34.08;11.00;;;1.70;99.90;;;;;;5073545;28;20035;-74
2021/12/06 07:51:22;;;;;;;31.10;10.32;;;1.80;99.90;;;;;;5099760;28;20024;-74
2021/12/06 07:53:48;;;;;;;26.55;10.88;;;1.70;99.90;;;;;;5086173;28;20028;-73
2021/12/06 07:56:15;;;;;;;28.17;10.15;;;1.70;99.90;;;;;;5104338;28;20096;-75
2021/12/06 07:58:42;;;;;;;31.75;11.77;;;1.70;99.90;;;;;;5080787;28;20042;-74
2021/12/06 08:01:09;;;;;;;24.20;9.25;;;1.70;99.90;;;;;;5088841;28;20091;-73
2021/12/06 08:03:36;;;;;;;31.50;9.60;;;1.70;99.90;;;;;;5066900;28;20031;-75
2021/12/06 08:06:03;;;;;;;31.48;10.75;;;1.70;99.90;;;;;;5084764;28;20060;-76
2021/12/06 08:08:31;;;;;;;28.50;9.10;;;1.60;99.90;;;;;;5084439;28;20033;-75
2021/12/06 08:11:14;;;;;;;32.70;10.90;;;1.60;99.90;;;;;;5092283;28;20028;-77
2021/12/06 08:13:50;;;;;;;29.23;9.10;;;1.70;99.90;;;;;;5087371;28;20085;-77
2021/12/06 08:16:23;;;;;;;33.38;10.48;;;1.70;99.90;;;;;;5084620;28;20056;-77
2021/12/06 08:18:49;;;;;;;38.17;10.63;;;1.70;99.90;;;;;;5084348;28;20039;-77
2021/12/06 08:21:18;;;;;;;29.92;9.93;;;1.70;99.90;;;;;;5084760;28;20024;-76
2021/12/06 08:23:45;;;;;;;31.88;11.07;;;1.80;99.90;;;;;;5084586;28;20120;-78
2021/12/06 08:26:13;;;;;;;32.88;10.75;;;1.80;99.90;;;;;;5086126;28;20105;-79
2021/12/06 08:28:40;;;;;;;31.42;11.68;;;1.80;99.90;;;;;;5097418;28;20040;-77
2021/12/06 08:31:06;;;;;;;28.75;10.30;;;1.80;99.90;;;;;;5084653;28;20021;-77
2021/12/06 08:33:34;;;;;;;24.50;10.20;;;1.80;99.90;;;;;;5066322;28;20472;-77
2021/12/06 08:36:00;;;;;;;33.80;10.18;;;1.80;99.90;;;;;;5083984;28;20041;-77
2021/12/06 08:38:29;;;;;;;33.28;9.63;;;1.80;99.90;;;;;;5070891;28;20036;-76
2021/12/06 08:40:56;;;;;;;28.52;11.13;;;1.80;99.90;;;;;;5104235;28;20371;-75
2021/12/06 08:43:23;;;;;;;29.75;10.20;;;1.90;99.90;;;;;;5085933;28;20035;-76
2021/12/06 08:45:59;;;;;;;29.15;10.77;;;1.90;99.90;;;;;;5103977;28;20088;-75
2021/12/06 08:48:29;;;;;;;27.95;9.50;;;2.00;99.90;;;;;;5104667;28;20087;-76
2021/12/06 08:51:00;;;;;;;33.50;9.02;;;2.00;99.90;;;;;;5104354;28;20032;-76
2021/12/06 08:53:28;;;;;;;29.20;9.93;;;2.00;99.90;;;;;;5080461;28;20071;-78
2021/12/06 08:55:54;;;;;;;28.02;10.43;;;2.10;99.90;;;;;;5075153;28;20032;-75
2021/12/06 08:58:20;;;;;;;30.60;9.65;;;2.10;99.90;;;;;;5066459;28;20311;-76
2021/12/06 09:00:47;;;;;;;27.85;10.98;;;2.10;99.90;;;;;;5073470;28;20038;-77
2021/12/06 09:03:13;;;;;;;35.17;9.95;;;2.20;99.90;;;;;;5095089;28;20035;-78
2021/12/06 09:05:46;;;;;;;32.30;10.70;;;2.20;99.90;;;;;;5104397;28;20032;-78
2021/12/06 09:08:14;;;;;;;28.27;10.50;;;2.20;99.90;;;;;;5086140;28;20044;-75
2021/12/06 09:10:41;;;;;;;27.02;9.85;;;2.30;99.90;;;;;;5095348;28;20051;-77
2021/12/06 09:13:07;;;;;;;34.55;10.38;;;2.30;99.90;;;;;;5079973;28;20047;-75
2021/12/06 09:15:33;;;;;;;25.95;8.63;;;2.30;99.90;;;;;;5085631;28;20025;-76
2021/12/06 09:17:59;;;;;;;31.02;9.88;;;2.30;99.90;;;;;;5069498;28;20063;-77
2021/12/06 09:20:34;;;;;;;30.85;9.63;;;2.30;99.90;;;;;;5088448;28;20074;-75
2021/12/06 09:23:00;;;;;;;33.30;9.43;;;2.40;99.90;;;;;;5077466;28;20053;-76
2021/12/06 09:25:27;;;;;;;32.65;9.63;;;2.40;99.90;;;;;;5087456;28;20024;-77
2021/12/06 09:27:53;;;;;;;22.50;8.95;;;2.40;99.90;;;;;;5076829;28;20047;-76
2021/12/06 09:30:26;;;;;;;32.63;9.20;;;2.50;99.90;;;;;;5089688;28;20120;-78
2021/12/06 09:32:54;;;;;;;17.88;6.88;;;2.40;99.90;;;;;;5079795;28;20032;-77
2021/12/06 09:35:25;;;;;;;32.30;9.82;;;2.40;99.90;;;;;;5069444;28;20389;-78
2021/12/06 09:37:51;;;;;;;29.50;9.77;;;2.40;99.90;;;;;;5069427;28;20111;-78
2021/12/06 09:40:19;;;;;;;26.42;10.32;;;2.40;99.90;;;;;;5070042;28;20449;-77
2021/12/06 09:42:46;;;;;;;28.83;9.07;;;2.40;99.90;;;;;;5087071;28;20391;-77
2021/12/06 09:45:21;;;;;;;22.05;8.23;;;2.40;99.90;;;;;;5075857;28;20095;-77
2021/12/06 09:47:52;;;;;;;17.45;6.78;;;2.40;99.90;;;;;;5090804;28;20036;-78
2021/12/06 09:50:28;;;;;;;23.08;9.23;;;2.40;99.90;;;;;;5072664;28;20047;-78
2021/12/06 09:52:56;;;;;;;28.73;9.80;;;2.50;99.90;;;;;;5091395;28;20044;-78
2021/12/06 09:55:24;;;;;;;29.30;9.70;;;2.50;99.90;;;;;;5098582;28;20032;-77
2021/12/06 09:57:50;;;;;;;28.27;8.48;;;2.50;99.90;;;;;;5081891;28;20036;-78
2021/12/06 10:00:21;;;;;;;26.38;8.68;;;2.50;99.90;;;;;;5087699;28;20020;-80
2021/12/06 10:02:49;;;;;;;19.73;7.10;;;2.50;99.90;;;;;;5098762;28;20028;-79
2021/12/06 10:05:16;;;;;;;21.20;9.38;;;2.70;99.90;;;;;;5086767;28;20033;-80
2021/12/06 10:07:46;;;;;;;17.50;7.25;;;2.60;99.90;;;;;;5089391;28;20103;-78
2021/12/06 10:10:17;;;;;;;24.35;8.25;;;2.60;99.90;;;;;;5107976;28;20529;-78
2021/12/06 10:12:51;;;;;;;24.08;8.75;;;2.70;99.90;;;;;;5075110;28;20028;-79
2021/12/06 10:15:30;;;;;;;23.60;8.73;;;2.70;99.90;;;;;;5080833;28;20033;-79
2021/12/06 10:17:57;;;;;;;24.58;8.52;;;2.70;99.90;;;;;;5080566;28;20043;-78
2021/12/06 10:20:25;;;;;;;31.05;9.35;;;2.70;99.90;;;;;;5100106;28;20032;-77
2021/12/06 10:22:51;;;;;;;22.65;7.40;;;2.80;99.90;;;;;;5087734;28;20028;-77
2021/12/06 10:25:18;;;;;;;13.25;6.70;;;2.80;99.90;;;;;;5087422;28;20051;-77
2021/12/06 10:27:53;;;;;;;27.10;8.35;;;2.80;99.90;;;;;;5107128;28;20084;-77
2021/12/06 10:30:23;;;;;;;20.63;5.95;;;2.80;99.90;;;;;;5106940;28;20028;-76
2021/12/06 10:32:49;;;;;;;20.77;7.15;;;2.80;99.90;;;;;;5086787;28;20024;-78
2021/12/06 10:35:16;;;;;;;21.45;7.78;;;2.80;99.90;;;;;;5081764;28;20139;-77
2021/12/06 10:37:51;;;;;;;21.52;7.60;;;2.70;99.90;;;;;;5106698;28;20038;-78
2021/12/06 10:40:27;;;;;;;28.67;7.55;;;2.70;99.90;;;;;;5081463;28;20031;-78
2021/12/06 10:42:54;;;;;;;22.25;7.32;;;2.70;99.90;;;;;;5093218;28;20040;-77
2021/12/06 10:45:26;;;;;;;22.25;8.15;;;2.70;99.90;;;;;;5066613;28;20021;-78
2021/12/06 10:48:06;;;;;;;23.17;7.57;;;2.70;99.90;;;;;;5066098;28;20051;-78
2021/12/06 10:50:32;;;;;;;25.75;8.63;;;2.70;99.90;;;;;;5086173;28;20157;-78
2021/12/06 10:53:00;;;;;;;23.38;8.07;;;2.70;99.90;;;;;;5080838;28;20030;-77
2021/12/06 10:55:30;;;;;;;25.88;7.95;;;2.80;99.90;;;;;;5073545;28;20024;-78
2021/12/06 10:58:11;;;;;;;18.67;9.15;;;2.80;99.90;;;;;;5086514;28;20036;-77
2021/12/06 11:00:55;;;;;;;24.13;7.78;;;2.80;99.90;;;;;;5096245;28;20342;-78
2021/12/06 11:03:31;;;;;;;23.40;7.95;;;2.70;99.90;;;;;;5088837;28;20048;-79
2021/12/06 11:06:02;;;;;;;21.02;7.65;;;2.70;99.90;;;;;;5098088;28;20043;-77
2021/12/06 11:08:28;;;;;;;25.67;7.95;;;2.70;99.90;;;;;;5077661;28;20020;-77
2021/12/06 11:11:00;;;;;;;22.15;7.78;;;2.70;99.90;;;;;;5085688;28;20028;-77
2021/12/06 11:13:33;;;;;;;23.75;7.78;;;2.70;99.90;;;;;;5082129;28;20040;-76
2021/12/06 11:16:06;;;;;;;29.48;9.38;;;2.70;99.90;;;;;;5086501;28;20107;-76
2021/12/06 11:18:41;;;;;;;26.58;8.90;;;2.70;99.90;;;;;;5067407;28;20060;-78
2021/12/06 11:21:43;;;;;;;24.30;9.07;;;2.70;99.90;;;;;;5069539;28;20032;-79
2021/12/06 11:24:32;;;;;;;25.60;7.70;;;2.70;99.90;;;;;;5096867;28;20028;-76
2021/12/06 11:27:01;;;;;;;28.50;8.38;;;2.60;99.90;;;;;;5092646;28;20083;-78
2021/12/06 11:29:43;;;;;;;25.33;7.88;;;2.60;99.90;;;;;;5076087;28;20052;-75
2021/12/06 11:32:27;;;;;;;17.98;7.63;;;2.50;99.90;;;;;;5066925;28;20033;-77
2021/12/06 11:34:58;;;;;;;26.43;9.20;;;2.50;99.90;;;;;;5062139;28;20057;-76
2021/12/06 11:37:31;;;;;;;28.67;8.00;;;2.50;99.90;;;;;;5063702;28;20044;-77
2021/12/06 11:40:19;;;;;;;24.35;7.85;;;2.50;99.90;;;;;;5064860;28;20393;-77
2021/12/06 11:42:59;;;;;;;30.50;9.75;;;2.60;99.90;;;;;;5063520;28;20098;-78
2021/12/06 11:45:55;;;;;;;22.73;8.40;;;2.50;99.90;;;;;;5063275;28;20063;-79
2021/12/06 11:48:37;;;;;;;23.05;8.18;;;2.50;99.90;;;;;;5064639;28;20037;-79
2021/12/06 11:51:19;;;;;;;27.60;8.57;;;2.50;99.90;;;;;;5063215;28;20035;-79
2021/12/06 11:53:56;;;;;;;29.10;9.15;;;2.50;99.90;;;;;;5064668;28;20071;-81
2021/12/06 11:56:28;;;;;;;25.55;8.40;;;2.50;99.90;;;;;;5063492;28;20028;-78
2021/12/06 11:59:01;;;;;;;24.48;8.23;;;2.50;99.90;;;;;;5064170;28;20047;-80
2021/12/06 12:01:30;;;;;;;24.20;9.20;;;2.50;99.90;;;;;;5063537;28;20058;-79
2021/12/06 12:03:59;;;;;;;30.02;9.07;;;2.60;99.90;;;;;;5063557;28;20051;-80
2021/12/06 12:06:40;;;;;;;29.10;9.43;;;2.60;99.90;;;;;;5065089;28;20033;-81
2021/12/06 12:09:28;;;;;;;27.77;8.45;;;2.50;99.90;;;;;;5080490;28;20053;-77
2021/12/06 12:12:03;;;;;;;21.58;7.05;;;2.60;99.90;;;;;;5069531;28;20497;-79
2021/12/06 12:14:50;;;;;;;25.45;8.02;;;2.50;99.90;;;;;;5071423;28;20032;-79
2021/12/06 12:17:19;;;;;;;32.38;9.68;;;2.50;99.90;;;;;;5070565;28;20032;-80
2021/12/06 12:19:52;;;;;;;27.27;9.55;;;2.50;99.90;;;;;;5080330;28;20048;-79
2021/12/06 12:22:20;;;;;;;23.60;9.32;;;2.50;99.90;;;;;;5067544;28;20036;-82
2021/12/06 12:24:53;;;;;;;27.30;10.10;;;2.60;99.90;;;;;;5079187;28;20036;-80
2021/12/06 12:29:59;;;;;;;23.85;7.70;;;2.60;99.90;;;;;;5064445;28;20029;-78
2021/12/06 12:32:25;;;;;;;22.17;7.93;;;2.60;99.90;;;;;;5064446;28;20502;-78
2021/12/06 12:34:53;;;;;;;32.10;8.90;;;2.60;99.90;;;;;;5073182;28;20044;-80
2021/12/06 12:37:20;;;;;;;22.40;8.40;;;2.60;99.90;;;;;;5068407;28;20021;-80
2021/12/06 12:40:17;;;;;;;23.88;9.63;;;2.60;99.90;;;;;;5069725;28;20044;-80
2021/12/06 12:43:04;;;;;;;21.85;7.65;;;2.60;99.90;;;;;;5068409;28;20037;-79
2021/12/06 12:45:51;;;;;;;28.02;10.25;;;2.60;99.90;;;;;;5062108;28;20033;-78
2021/12/06 12:48:25;;;;;;;30.08;9.68;;;2.60;99.90;;;;;;5062846;28;20094;-78
2021/12/06 12:51:07;;;;;;;38.72;12.30;;;2.50;99.90;;;;;;5068787;28;20029;-77
2021/12/06 12:54:12;;;;;;;29.90;11.15;;;2.50;99.90;;;;;;5083079;28;20606;-78
2021/12/06 12:56:48;;;;;;;28.73;10.27;;;2.50;99.90;;;;;;5081962;28;20044;-77
2021/12/06 12:59:20;;;;;;;18.83;8.43;;;2.60;99.90;;;;;;5062643;28;20033;-80
2021/12/06 13:02:45;;;;;;;34.80;10.50;;;2.60;99.90;;;;;;5062411;28;20048;-76
2021/12/06 13:05:23;;;;;;;22.65;7.53;;;2.60;99.90;;;;;;4985748;28;20134;-80
2021/12/06 13:07:49;;;;;;;36.55;10.73;;;2.60;99.90;;;;;;5055795;28;20049;-80
2021/12/06 13:10:27;;;;;;;27.75;10.63;;;2.60;99.90;;;;;;5062384;28;20036;-78
2021/12/06 13:12:59;;;;;;;37.92;10.57;;;2.60;99.90;;;;;;5063385;28;20062;-77